KDUX

Moore County Airport

Dumas, Texas, USA
METAR KDUX 221535Z AUTO 18008KT 10SM CLR 21/09 A3006 RMK AO2 T02120094
Observed Flight Rules
May-22 @ 15:35 UTC (15 minutes ago) Visual Flight Rules
Wind Visibility Clouds
180° at 8 knots 10 miles
  • Clear skies
Temperatures Readings
Current 21°C / 70°F
Dewpoint 9°C / 48°F
Humidity 46%
Altimeter 30.06" Hg
Pressure 1018 hPa
Elevation 1129
METAR KDUX 221535Z AUTO 18008KT 10SM CLR 21/09 A3006 RMK AO2 T02120094
Observed Flight Rules
May-22 @ 15:35 UTC
(15 minutes ago)
VFR
Wind Visibility
180° at 8 knots 10 miles
Clouds
  • Clear skies
Temperature Dewpoint
21°C / 70°F 9°C / 48°F
Humidity Altimeter Pressure
46% 30.06" Hg 1018 hPa